createdAt,value
2022-10-17T00:01:05.308Z,14.30
2022-10-17T00:03:34.838Z,14.30
2022-10-17T00:06:09.152Z,14.30
2022-10-17T00:08:38.641Z,14.30
2022-10-17T00:11:13.929Z,14.20
2022-10-17T00:13:41.291Z,14.20
2022-10-17T00:16:08.971Z,14.20
2022-10-17T00:18:36.399Z,14.20
2022-10-17T00:21:04.264Z,14.10
2022-10-17T00:23:31.586Z,14.10
2022-10-17T00:26:01.332Z,14.10
2022-10-17T00:28:28.804Z,14.10
2022-10-17T00:30:59.217Z,14.10
2022-10-17T00:33:28.667Z,14.10
2022-10-17T00:36:16.031Z,14.00
2022-10-17T00:38:46.205Z,14.00
2022-10-17T00:41:18.888Z,14.00
2022-10-17T00:43:53.609Z,13.90
2022-10-17T00:46:22.958Z,13.90
2022-10-17T00:48:53.849Z,13.90
2022-10-17T00:51:33.013Z,13.90
2022-10-17T00:54:02.876Z,13.90
2022-10-17T00:56:32.282Z,13.90
2022-10-17T00:59:00.885Z,13.80
2022-10-17T01:01:28.453Z,13.80
2022-10-17T01:03:58.157Z,13.70
2022-10-17T01:06:26.412Z,13.70
2022-10-17T01:08:54.810Z,13.70
2022-10-17T01:11:34.811Z,13.70
2022-10-17T01:14:21.854Z,13.70
2022-10-17T01:17:16.935Z,13.70
2022-10-17T01:20:37.349Z,13.70
2022-10-17T01:23:16.520Z,13.70
2022-10-17T01:26:22.593Z,13.60
2022-10-17T01:28:52.976Z,13.60
2022-10-17T01:31:27.726Z,13.60
2022-10-17T01:34:01.014Z,13.60
2022-10-17T01:36:36.889Z,13.60
2022-10-17T01:39:51.980Z,13.60
2022-10-17T01:42:37.816Z,13.60
2022-10-17T01:45:43.172Z,13.60
2022-10-17T01:48:21.795Z,13.60
2022-10-17T01:51:08.910Z,13.60
2022-10-17T01:53:50.555Z,13.60
2022-10-17T01:56:22.884Z,13.50
2022-10-17T01:59:01.195Z,13.60
2022-10-17T02:01:30.975Z,13.50
2022-10-17T02:04:01.226Z,13.50
2022-10-17T02:06:28.499Z,13.50
2022-10-17T02:08:55.763Z,13.50
2022-10-17T02:11:26.690Z,13.50
2022-10-17T02:14:27.449Z,13.50
2022-10-17T02:17:06.785Z,13.50
2022-10-17T02:20:15.925Z,13.40
2022-10-17T02:23:03.576Z,13.40
2022-10-17T02:25:50.249Z,13.40
2022-10-17T02:28:30.554Z,13.40
2022-10-17T02:31:17.837Z,13.60
2022-10-17T02:34:51.859Z,13.80
2022-10-17T02:37:25.547Z,14.00
2022-10-17T02:39:59.334Z,14.20
2022-10-17T02:42:29.540Z,14.30
2022-10-17T02:45:02.557Z,14.30
2022-10-17T02:47:43.282Z,14.40
2022-10-17T02:50:11.423Z,14.50
2022-10-17T02:53:08.624Z,14.50
2022-10-17T02:55:56.880Z,14.50
2022-10-17T02:58:35.733Z,14.60
2022-10-17T03:01:06.117Z,14.60
2022-10-17T03:03:33.630Z,14.70
2022-10-17T03:06:01.162Z,14.70
2022-10-17T03:08:28.678Z,14.70
2022-10-17T03:10:55.976Z,14.60
2022-10-17T03:13:23.323Z,14.60
2022-10-17T03:15:50.606Z,14.60
2022-10-17T03:18:21.000Z,14.50
2022-10-17T03:20:48.180Z,14.50
2022-10-17T03:23:16.849Z,14.50
2022-10-17T03:25:44.109Z,14.50
2022-10-17T03:28:12.478Z,14.50
2022-10-17T03:30:39.710Z,14.50
2022-10-17T03:33:07.029Z,14.50
2022-10-17T03:35:34.384Z,14.50
2022-10-17T03:38:01.606Z,14.50
2022-10-17T03:40:28.891Z,14.40
2022-10-17T03:42:56.124Z,14.40
2022-10-17T03:45:23.384Z,14.40
2022-10-17T03:47:50.760Z,14.50
2022-10-17T03:50:18.027Z,14.50
2022-10-17T03:52:49.727Z,14.50
2022-10-17T03:55:17.756Z,14.40
2022-10-17T03:57:45.692Z,14.40
2022-10-17T04:00:13.807Z,14.40
2022-10-17T04:02:41.560Z,14.30
2022-10-17T04:05:09.131Z,14.30
2022-10-17T04:07:37.712Z,14.30
2022-10-17T04:10:06.090Z,14.30
2022-10-17T04:12:33.633Z,14.40
2022-10-17T04:15:01.126Z,14.40
2022-10-17T04:17:35.795Z,14.40
2022-10-17T04:20:05.908Z,14.40
2022-10-17T04:22:33.161Z,14.30
2022-10-17T04:25:00.504Z,14.30
2022-10-17T04:27:29.436Z,14.30
2022-10-17T04:29:56.819Z,14.20
2022-10-17T04:32:26.559Z,14.10
2022-10-17T04:34:54.712Z,14.10
2022-10-17T04:37:22.205Z,14.10
2022-10-17T04:39:49.624Z,14.10
2022-10-17T04:42:16.988Z,14.10
2022-10-17T04:44:44.328Z,14.00
2022-10-17T04:47:11.507Z,14.00
2022-10-17T04:49:38.841Z,14.10
2022-10-17T04:52:06.789Z,14.10
2022-10-17T04:54:34.063Z,14.00
2022-10-17T04:57:02.688Z,14.00
2022-10-17T04:59:30.207Z,13.90
2022-10-17T05:02:04.858Z,13.90
2022-10-17T05:04:33.679Z,13.90
2022-10-17T05:07:01.132Z,13.90
2022-10-17T05:09:28.737Z,13.90
2022-10-17T05:11:56.196Z,13.90
2022-10-17T05:14:26.521Z,13.90
2022-10-17T05:16:53.851Z,14.00
2022-10-17T05:19:21.130Z,14.00
2022-10-17T05:21:48.536Z,14.00
2022-10-17T05:24:16.571Z,14.00
2022-10-17T05:26:43.996Z,14.00
2022-10-17T05:29:11.560Z,14.10
2022-10-17T05:31:38.916Z,14.10
2022-10-17T05:34:08.985Z,14.00
2022-10-17T05:36:38.776Z,14.10
2022-10-17T05:39:06.884Z,14.10
2022-10-17T05:41:34.592Z,14.10
2022-10-17T05:44:05.385Z,14.10
2022-10-17T05:46:37.337Z,14.10
2022-10-17T05:50:02.995Z,14.10
2022-10-17T05:52:33.439Z,14.20
2022-10-17T05:55:09.246Z,14.20
2022-10-17T05:57:41.330Z,14.20
2022-10-17T06:00:22.158Z,14.30
2022-10-17T06:03:01.318Z,14.40
2022-10-17T06:05:28.767Z,14.40
2022-10-17T06:07:59.604Z,14.40
2022-10-17T06:10:40.309Z,14.50
2022-10-17T06:13:07.631Z,14.50
2022-10-17T06:15:34.964Z,14.60
2022-10-17T06:18:02.351Z,14.60
2022-10-17T06:20:32.363Z,14.70
2022-10-17T06:22:59.756Z,14.70
2022-10-17T06:25:27.283Z,14.80
2022-10-17T06:27:54.543Z,14.90
2022-10-17T06:30:24.217Z,14.90
2022-10-17T06:32:54.022Z,15.00
2022-10-17T06:35:21.695Z,15.10
2022-10-17T06:37:49.003Z,15.10
2022-10-17T06:40:17.738Z,15.10
2022-10-17T06:42:45.213Z,15.20
2022-10-17T06:45:12.689Z,15.40
2022-10-17T06:47:40.416Z,15.80
2022-10-17T06:50:08.243Z,16.30
2022-10-17T06:52:35.539Z,16.70
2022-10-17T06:55:05.818Z,17.20
2022-10-17T06:57:33.249Z,17.70
2022-10-17T07:00:00.570Z,18.10
2022-10-17T07:02:34.061Z,18.40
2022-10-17T07:05:16.593Z,18.60
2022-10-17T07:07:49.600Z,18.90
2022-10-17T07:10:23.266Z,18.80
2022-10-17T07:12:52.740Z,18.70
2022-10-17T07:15:25.487Z,18.60
2022-10-17T07:18:01.522Z,18.20
2022-10-17T07:20:29.314Z,17.90
2022-10-17T07:22:57.155Z,17.70
2022-10-17T07:25:25.154Z,17.60
2022-10-17T07:27:55.747Z,17.40
2022-10-17T07:30:24.164Z,17.30
2022-10-17T07:33:11.980Z,17.20
2022-10-17T07:38:28.449Z,17.20
2022-10-17T07:41:37.468Z,17.20
2022-10-17T07:44:07.936Z,17.20
2022-10-17T07:46:35.358Z,17.30
2022-10-17T07:49:02.763Z,17.30
2022-10-17T07:51:30.179Z,17.30
2022-10-17T07:53:57.898Z,17.40
2022-10-17T07:56:27.487Z,17.40
2022-10-17T08:01:50.711Z,17.50
2022-10-17T08:04:18.404Z,17.60
2022-10-17T08:06:45.770Z,17.70
2022-10-17T08:09:13.396Z,17.70
2022-10-17T08:11:40.963Z,17.80
2022-10-17T08:14:08.261Z,17.90
2022-10-17T08:16:41.905Z,17.90
2022-10-17T08:19:13.118Z,18.00
2022-10-17T08:21:44.975Z,18.00
2022-10-17T08:28:26.082Z,18.30
2022-10-17T08:34:16.048Z,18.40
2022-10-17T08:43:03.752Z,18.60
2022-10-17T08:45:54.480Z,18.60
2022-10-17T08:49:11.990Z,18.80
2022-10-17T08:52:39.375Z,18.90
2022-10-17T08:55:50.570Z,19.10
2022-10-17T08:58:31.438Z,19.20
2022-10-17T09:01:24.105Z,19.30
2022-10-17T09:04:38.008Z,19.40
2022-10-17T09:07:10.330Z,19.40
2022-10-17T09:10:17.194Z,19.60
2022-10-17T09:13:23.006Z,19.60
2022-10-17T09:16:44.436Z,19.70
2022-10-17T09:20:06.120Z,19.70
2022-10-17T09:23:09.476Z,19.50
2022-10-17T09:26:13.481Z,19.50
2022-10-17T09:29:05.103Z,19.40
2022-10-17T09:32:11.459Z,19.30
2022-10-17T09:34:45.006Z,19.40
2022-10-17T09:37:16.544Z,19.40
2022-10-17T09:39:47.304Z,19.40
2022-10-17T09:42:21.451Z,19.50
2022-10-17T09:45:27.130Z,19.50
2022-10-17T09:48:22.922Z,19.60
2022-10-17T09:50:57.928Z,19.70
2022-10-17T09:53:42.931Z,19.70
2022-10-17T09:56:19.237Z,20.00
2022-10-17T09:58:57.970Z,20.30
2022-10-17T10:01:31.603Z,20.60
2022-10-17T10:04:17.330Z,20.80
2022-10-17T10:07:34.612Z,21.00
2022-10-17T10:10:04.712Z,21.30
2022-10-17T10:12:39.948Z,21.40
2022-10-17T10:15:48.194Z,21.50
2022-10-17T10:21:54.280Z,21.70
2022-10-17T10:24:21.878Z,21.70
2022-10-17T10:26:57.053Z,21.80
2022-10-17T10:29:29.021Z,21.90
2022-10-17T10:35:38.016Z,22.10
2022-10-17T10:38:21.638Z,22.10
2022-10-17T10:40:58.288Z,22.20
2022-10-17T10:43:45.528Z,22.20
2022-10-17T10:46:21.867Z,22.30
2022-10-17T10:49:00.325Z,22.30
2022-10-17T10:51:41.389Z,22.40
2022-10-17T10:54:32.502Z,22.40
2022-10-17T10:57:21.031Z,22.40
2022-10-17T11:00:15.968Z,22.50
2022-10-17T11:03:01.740Z,22.50
2022-10-17T11:05:42.908Z,22.50
2022-10-17T11:08:25.747Z,22.60
2022-10-17T11:11:18.364Z,22.60
2022-10-17T11:14:17.828Z,22.60
2022-10-17T11:16:56.629Z,22.70
2022-10-17T11:20:20.935Z,22.80
2022-10-17T11:22:57.672Z,22.90
2022-10-17T11:25:39.281Z,22.90
2022-10-17T11:28:24.948Z,23.00
2022-10-17T11:31:09.704Z,23.00
2022-10-17T11:33:47.685Z,23.10
2022-10-17T11:36:21.675Z,23.20
2022-10-17T11:39:27.770Z,23.20
2022-10-17T11:42:07.259Z,23.30
2022-10-17T11:44:40.640Z,23.40
2022-10-17T11:47:31.066Z,23.40
2022-10-17T11:53:09.388Z,23.40
2022-10-17T11:55:38.545Z,23.20
2022-10-17T11:58:34.155Z,23.00
2022-10-17T12:01:20.282Z,22.90
2022-10-17T12:04:24.693Z,22.80
2022-10-17T12:07:44.194Z,22.70
2022-10-17T12:10:40.764Z,22.80
2022-10-17T12:13:36.849Z,22.90
2022-10-17T12:16:20.809Z,22.80
2022-10-17T12:19:10.959Z,22.80
2022-10-17T12:22:13.210Z,22.70
2022-10-17T12:24:44.296Z,22.80
2022-10-17T12:27:45.317Z,22.70
2022-10-17T12:30:12.622Z,22.80
2022-10-17T12:33:07.578Z,22.70
2022-10-17T12:35:38.185Z,22.80
2022-10-17T12:38:21.057Z,22.80
2022-10-17T12:40:55.425Z,22.80
2022-10-17T12:43:28.708Z,22.80
2022-10-17T12:46:01.772Z,22.80
2022-10-17T12:48:38.049Z,22.80
2022-10-17T12:51:35.309Z,22.80
2022-10-17T12:54:13.532Z,22.80
2022-10-17T12:56:49.027Z,22.80
2022-10-17T12:59:28.034Z,22.70
2022-10-17T13:02:01.416Z,22.70
2022-10-17T13:04:32.284Z,22.70
2022-10-17T13:07:01.400Z,22.80
2022-10-17T13:09:43.908Z,22.80
2022-10-17T13:12:41.197Z,22.80
2022-10-17T13:15:17.376Z,22.80
2022-10-17T13:17:45.064Z,22.80
2022-10-17T13:20:28.973Z,22.90
2022-10-17T13:23:00.349Z,23.00
2022-10-17T13:25:28.925Z,23.30
2022-10-17T13:28:13.561Z,23.60
2022-10-17T13:30:49.283Z,23.80
2022-10-17T13:33:35.819Z,23.90
2022-10-17T13:36:08.307Z,24.00
2022-10-17T13:38:40.301Z,24.00
2022-10-17T13:41:34.701Z,24.10
2022-10-17T13:44:13.179Z,24.10
2022-10-17T13:46:42.727Z,24.20
2022-10-17T13:49:41.566Z,24.20
2022-10-17T13:52:25.125Z,24.20
2022-10-17T13:54:54.155Z,24.20
2022-10-17T13:57:30.496Z,24.20
2022-10-17T14:00:09.918Z,24.10
2022-10-17T14:02:42.024Z,24.10
2022-10-17T14:05:19.707Z,24.10
2022-10-17T14:08:19.149Z,24.10
2022-10-17T14:10:47.182Z,24.10
2022-10-17T14:13:33.869Z,24.10
2022-10-17T14:16:04.511Z,24.10
2022-10-17T14:18:37.573Z,24.10
2022-10-17T14:24:21.481Z,24.00
2022-10-17T14:26:53.120Z,23.90
2022-10-17T14:29:53.557Z,23.90
2022-10-17T14:32:22.665Z,23.90
2022-10-17T14:35:05.537Z,23.90
2022-10-17T14:37:47.794Z,23.80
2022-10-17T14:40:20.034Z,23.80
2022-10-17T14:42:50.490Z,23.70
2022-10-17T14:45:35.738Z,23.70
2022-10-17T14:48:17.333Z,23.60
2022-10-17T14:51:16.830Z,23.60
2022-10-17T14:54:05.029Z,23.60
2022-10-17T14:56:41.951Z,23.50
2022-10-17T14:59:18.246Z,23.20
2022-10-17T15:01:52.810Z,23.00
2022-10-17T15:04:20.064Z,22.70
2022-10-17T15:06:55.548Z,22.50
2022-10-17T15:09:23.938Z,22.40
2022-10-17T15:11:51.380Z,22.20
2022-10-17T15:14:18.713Z,22.10
2022-10-17T15:16:45.999Z,21.90
2022-10-17T15:19:14.553Z,21.80
2022-10-17T15:21:46.178Z,21.70
2022-10-17T15:24:15.849Z,21.60
2022-10-17T15:26:43.262Z,21.50
2022-10-17T15:29:16.114Z,21.40
2022-10-17T15:31:43.384Z,21.30
2022-10-17T15:34:11.726Z,21.20
2022-10-17T15:36:49.750Z,21.20
2022-10-17T15:39:17.095Z,21.10
2022-10-17T15:41:44.457Z,20.90
2022-10-17T15:44:11.721Z,20.90
2022-10-17T15:46:41.589Z,20.80
2022-10-17T15:49:15.241Z,20.70
2022-10-17T15:51:42.790Z,20.60
2022-10-17T15:54:10.173Z,20.50
2022-10-17T15:56:51.997Z,20.40
2022-10-17T15:59:30.719Z,20.30
2022-10-17T16:01:58.016Z,20.20
2022-10-17T16:04:27.381Z,20.10
2022-10-17T16:06:54.658Z,20.00
2022-10-17T16:09:21.926Z,19.90
2022-10-17T16:11:50.530Z,19.80
2022-10-17T16:14:18.603Z,19.80
2022-10-17T16:16:47.535Z,19.70
2022-10-17T16:19:14.858Z,19.60
2022-10-17T16:21:42.775Z,19.50
2022-10-17T16:24:12.341Z,19.40
2022-10-17T16:26:42.554Z,19.40
2022-10-17T16:29:10.255Z,19.30
2022-10-17T16:31:43.587Z,19.20
2022-10-17T16:34:13.832Z,19.10
2022-10-17T16:36:45.485Z,19.10
2022-10-17T16:39:12.880Z,19.00
2022-10-17T16:41:41.391Z,18.90
2022-10-17T16:44:14.615Z,18.90
2022-10-17T16:46:42.083Z,18.80
2022-10-17T16:49:10.497Z,18.80
2022-10-17T16:51:37.757Z,18.70
2022-10-17T16:54:05.115Z,18.70
2022-10-17T16:56:33.185Z,18.60
2022-10-17T16:59:02.234Z,18.60
2022-10-17T17:01:29.907Z,18.50
2022-10-17T17:03:57.531Z,18.50
2022-10-17T17:06:29.739Z,18.40
2022-10-17T17:08:58.042Z,18.40
2022-10-17T17:11:27.773Z,18.30
2022-10-17T17:14:01.558Z,18.30
2022-10-17T17:16:31.104Z,18.20
2022-10-17T17:19:08.590Z,18.20
2022-10-17T17:21:36.991Z,18.20
2022-10-17T17:24:05.493Z,18.10
2022-10-17T17:26:38.955Z,18.10
2022-10-17T17:29:09.640Z,18.10
2022-10-17T17:31:39.045Z,18.00
2022-10-17T17:34:06.276Z,18.00
2022-10-17T17:36:37.591Z,18.00
2022-10-17T17:41:49.814Z,17.80
2022-10-17T17:44:19.941Z,17.80
2022-10-17T17:46:54.377Z,17.70
2022-10-17T17:49:21.701Z,17.70
2022-10-17T17:51:52.550Z,17.60
2022-10-17T17:54:19.988Z,17.50
2022-10-17T17:56:52.430Z,17.50
2022-10-17T17:59:19.622Z,17.50
2022-10-17T18:01:47.000Z,17.50
2022-10-17T18:04:18.740Z,17.50
2022-10-17T18:06:47.534Z,17.40
2022-10-17T18:09:14.940Z,17.40
2022-10-17T18:11:43.457Z,17.30
2022-10-17T18:14:12.963Z,17.30
2022-10-17T18:16:40.367Z,17.30
2022-10-17T18:19:09.827Z,17.20
2022-10-17T18:21:38.027Z,17.20
2022-10-17T18:24:27.188Z,17.10
2022-10-17T18:26:59.650Z,17.10
2022-10-17T18:29:27.651Z,17.00
2022-10-17T18:31:55.024Z,17.00
2022-10-17T18:34:22.345Z,16.90
2022-10-17T18:36:49.910Z,16.90
2022-10-17T18:39:19.789Z,16.90
2022-10-17T18:41:47.174Z,16.80
2022-10-17T18:44:15.675Z,16.80
2022-10-17T18:46:43.323Z,16.70
2022-10-17T18:49:16.691Z,16.70
2022-10-17T18:51:43.962Z,16.60
2022-10-17T18:54:22.723Z,16.60
2022-10-17T18:56:57.304Z,16.60
2022-10-17T18:59:24.578Z,16.50
2022-10-17T19:01:54.929Z,16.50
2022-10-17T19:04:23.872Z,16.50
2022-10-17T19:06:51.540Z,16.50
2022-10-17T19:12:49.697Z,16.40
2022-10-17T19:15:41.068Z,16.30
2022-10-17T19:18:08.284Z,16.30
2022-10-17T19:20:37.870Z,16.30
2022-10-17T19:23:05.141Z,16.30
2022-10-17T19:25:36.928Z,16.20
2022-10-17T19:28:07.132Z,16.20
2022-10-17T19:30:36.363Z,16.20
2022-10-17T19:33:03.736Z,16.10
2022-10-17T19:35:33.548Z,16.10
2022-10-17T19:38:07.701Z,16.10
2022-10-17T19:40:39.285Z,16.00
2022-10-17T19:43:06.455Z,16.00
2022-10-17T19:45:36.654Z,15.90
2022-10-17T19:48:04.017Z,16.00
2022-10-17T19:50:36.680Z,15.90
2022-10-17T19:53:20.453Z,15.90
2022-10-17T19:57:00.264Z,15.80
2022-10-17T19:59:14.583Z,15.80
2022-10-17T20:02:02.370Z,15.80
2022-10-17T20:04:29.523Z,15.70
2022-10-17T20:06:59.973Z,15.70
2022-10-17T20:09:27.206Z,15.60
2022-10-17T20:11:54.331Z,15.60
2022-10-17T20:14:21.617Z,15.60
2022-10-17T20:16:52.036Z,15.60
2022-10-17T20:19:19.977Z,15.50
2022-10-17T20:21:47.387Z,15.50
2022-10-17T20:24:16.318Z,15.40
2022-10-17T20:26:44.456Z,15.40
2022-10-17T20:29:17.807Z,15.40
2022-10-17T20:31:46.062Z,15.40
2022-10-17T20:34:16.086Z,15.30
2022-10-17T20:36:43.608Z,15.30
2022-10-17T20:39:13.822Z,15.30
2022-10-17T20:41:41.937Z,15.30
2022-10-17T20:44:09.298Z,15.20
2022-10-17T20:46:39.788Z,15.20
2022-10-17T20:49:19.131Z,15.20
2022-10-17T20:51:46.703Z,15.10
2022-10-17T20:54:14.249Z,15.10
2022-10-17T20:56:44.155Z,15.10
2022-10-17T20:59:13.618Z,15.10
2022-10-17T21:01:41.101Z,15.00
2022-10-17T21:04:40.585Z,15.10
2022-10-17T21:06:56.527Z,15.00
2022-10-17T21:09:24.151Z,15.00
2022-10-17T21:11:55.271Z,15.00
2022-10-17T21:14:24.299Z,14.90
2022-10-17T21:16:54.718Z,14.90
2022-10-17T21:19:22.263Z,14.90
2022-10-17T21:21:50.045Z,14.90
2022-10-17T21:24:24.143Z,14.80
2022-10-17T21:27:07.448Z,14.80
2022-10-17T21:29:34.624Z,14.80
2022-10-17T21:32:01.923Z,14.80
2022-10-17T21:34:32.919Z,14.80
2022-10-17T21:37:00.551Z,14.70
2022-10-17T21:39:27.730Z,14.70
2022-10-17T21:41:56.096Z,14.70
2022-10-17T21:44:25.717Z,14.70
2022-10-17T21:46:55.052Z,14.70
2022-10-17T21:49:24.817Z,14.70
2022-10-17T21:51:52.924Z,14.70
2022-10-17T21:54:31.406Z,14.70
2022-10-17T21:56:59.133Z,14.60
2022-10-17T21:59:26.415Z,14.60
2022-10-17T22:01:53.912Z,14.60
2022-10-17T22:04:21.550Z,14.60
2022-10-17T22:06:51.320Z,14.60
2022-10-17T22:09:22.127Z,14.60
2022-10-17T22:11:52.629Z,14.60
2022-10-17T22:14:21.307Z,14.50
2022-10-17T22:16:49.524Z,14.50
2022-10-17T22:19:21.123Z,14.50
2022-10-17T22:21:49.130Z,14.50
2022-10-17T22:24:18.632Z,14.50
2022-10-17T22:26:46.232Z,14.50
2022-10-17T22:29:13.552Z,14.50
2022-10-17T22:31:41.113Z,14.50
2022-10-17T22:34:08.549Z,14.40
2022-10-17T22:36:36.471Z,14.50
2022-10-17T22:39:04.218Z,14.50
2022-10-17T22:41:32.168Z,14.40
2022-10-17T22:43:59.282Z,14.40
2022-10-17T22:46:26.591Z,14.30
2022-10-17T22:48:53.766Z,14.30
2022-10-17T22:51:21.019Z,14.30
2022-10-17T22:53:48.518Z,14.20
2022-10-17T22:56:18.704Z,14.20
2022-10-17T22:58:46.518Z,14.20
2022-10-17T23:01:22.743Z,14.10
2022-10-17T23:03:51.622Z,14.10
2022-10-17T23:06:20.555Z,14.10
2022-10-17T23:08:48.089Z,14.00
2022-10-17T23:11:15.833Z,14.00
2022-10-17T23:13:42.974Z,14.00
2022-10-17T23:16:10.196Z,13.90
2022-10-17T23:18:38.899Z,13.90
2022-10-17T23:21:07.166Z,13.90
2022-10-17T23:23:34.622Z,13.80
2022-10-17T23:26:10.924Z,13.80
2022-10-17T23:28:38.880Z,13.80
2022-10-17T23:31:17.805Z,13.80
2022-10-17T23:33:46.899Z,13.70
2022-10-17T23:36:16.261Z,13.70
2022-10-17T23:38:44.745Z,13.60
2022-10-17T23:41:12.221Z,13.70
2022-10-17T23:43:40.184Z,13.60
2022-10-17T23:46:11.553Z,13.60
2022-10-17T23:48:39.489Z,13.60
2022-10-17T23:51:11.162Z,13.60
2022-10-17T23:53:39.442Z,13.60
2022-10-17T23:56:07.853Z,13.50
2022-10-17T23:58:35.734Z,13.50
